createdAt,value
2023-01-08T00:01:10.819Z,10.77
2023-01-08T00:03:38.234Z,8.52
2023-01-08T00:06:07.670Z,10.38
2023-01-08T00:08:34.821Z,10.57
2023-01-08T00:11:01.459Z,10.52
2023-01-08T00:13:28.493Z,9.63
2023-01-08T00:15:55.179Z,15.05
2023-01-08T00:18:22.604Z,14.23
2023-01-08T00:20:49.242Z,9.20
2023-01-08T00:23:18.267Z,13.32
2023-01-08T00:25:45.659Z,16.05
2023-01-08T00:28:12.539Z,10.82
2023-01-08T00:30:39.236Z,14.50
2023-01-08T00:33:05.818Z,10.65
2023-01-08T00:35:32.427Z,14.82
2023-01-08T00:37:58.987Z,9.77
2023-01-08T00:40:25.590Z,9.50
2023-01-08T00:42:52.265Z,10.63
2023-01-08T00:45:19.049Z,12.07
2023-01-08T00:47:45.815Z,11.93
2023-01-08T00:50:12.536Z,10.05
2023-01-08T00:52:39.075Z,8.77
2023-01-08T00:55:06.263Z,10.05
2023-01-08T00:57:35.162Z,12.38
2023-01-08T01:00:02.039Z,11.90
2023-01-08T01:02:28.563Z,11.35
2023-01-08T01:04:55.281Z,9.15
2023-01-08T01:07:22.072Z,10.27
2023-01-08T01:09:48.660Z,11.10
2023-01-08T01:12:15.219Z,8.07
2023-01-08T01:14:41.972Z,11.70
2023-01-08T01:17:10.120Z,9.60
2023-01-08T01:19:36.728Z,9.45
2023-01-08T01:22:03.313Z,12.70
2023-01-08T01:24:29.976Z,8.68
2023-01-08T01:26:57.487Z,7.60
2023-01-08T01:29:25.595Z,10.85
2023-01-08T01:31:57.236Z,9.25
2023-01-08T01:34:23.905Z,13.60
2023-01-08T01:36:50.456Z,14.90
2023-01-08T01:39:17.327Z,8.65
2023-01-08T01:41:45.314Z,13.85
2023-01-08T01:44:41.709Z,9.80
2023-01-08T01:47:29.989Z,9.77
2023-01-08T01:50:00.687Z,9.95
2023-01-08T01:52:30.833Z,9.63
2023-01-08T01:54:59.703Z,7.65
2023-01-08T01:57:26.512Z,9.18
2023-01-08T01:59:54.322Z,10.68
2023-01-08T02:02:22.973Z,11.02
2023-01-08T02:04:50.273Z,10.20
2023-01-08T02:07:28.149Z,13.82
2023-01-08T02:10:15.923Z,10.18
2023-01-08T02:12:47.682Z,9.32
2023-01-08T02:15:14.379Z,8.63
2023-01-08T02:18:02.805Z,9.77
2023-01-08T02:20:35.279Z,9.52
2023-01-08T02:23:30.482Z,8.93
2023-01-08T02:26:06.311Z,9.77
2023-01-08T02:28:39.940Z,10.73
2023-01-08T02:31:07.428Z,10.10
2023-01-08T02:33:34.120Z,14.77
2023-01-08T02:36:28.070Z,11.63
2023-01-08T02:39:07.635Z,11.35
2023-01-08T02:42:01.655Z,12.43
2023-01-08T02:44:31.210Z,11.23
2023-01-08T02:47:00.701Z,7.85
2023-01-08T02:49:32.582Z,12.27
2023-01-08T02:52:02.361Z,8.45
2023-01-08T02:54:32.091Z,14.35
2023-01-08T02:57:09.934Z,11.25
2023-01-08T02:59:39.935Z,9.93
2023-01-08T03:02:07.492Z,8.63
2023-01-08T03:04:43.758Z,12.27
2023-01-08T03:07:10.527Z,5.93
2023-01-08T03:09:37.203Z,9.57
2023-01-08T03:12:18.428Z,18.25
2023-01-08T03:15:00.676Z,12.77
2023-01-08T03:17:32.728Z,9.10
2023-01-08T03:20:18.105Z,10.88
2023-01-08T03:22:48.809Z,8.15
2023-01-08T03:25:18.450Z,10.32
2023-01-08T03:27:50.744Z,10.38
2023-01-08T03:30:19.803Z,13.57
2023-01-08T03:32:47.513Z,12.77
2023-01-08T03:35:19.762Z,9.18
2023-01-08T03:37:52.875Z,12.05
2023-01-08T03:40:48.223Z,12.23
2023-01-08T03:43:15.093Z,11.88
2023-01-08T03:45:53.915Z,12.70
2023-01-08T03:48:21.582Z,12.20
2023-01-08T03:50:49.114Z,13.45
2023-01-08T03:53:15.733Z,8.10
2023-01-08T03:55:42.373Z,13.43
2023-01-08T03:58:08.963Z,16.98
2023-01-08T04:00:35.730Z,16.17
2023-01-08T04:03:04.397Z,12.55
2023-01-08T04:05:32.393Z,15.85
2023-01-08T04:07:58.948Z,16.20
2023-01-08T04:10:26.159Z,12.38
2023-01-08T04:12:52.887Z,16.92
2023-01-08T04:15:19.525Z,13.60
2023-01-08T04:17:46.140Z,11.18
2023-01-08T04:20:12.727Z,11.43
2023-01-08T04:22:39.277Z,18.92
2023-01-08T04:25:06.072Z,19.65
2023-01-08T04:27:32.616Z,14.80
2023-01-08T04:29:59.159Z,15.73
2023-01-08T04:32:25.690Z,15.70
2023-01-08T04:34:52.257Z,11.40
2023-01-08T04:37:18.866Z,11.13
2023-01-08T04:39:45.508Z,10.52
2023-01-08T04:42:12.040Z,12.48
2023-01-08T04:44:38.639Z,11.98
2023-01-08T04:47:05.157Z,16.05
2023-01-08T04:49:31.739Z,13.80
2023-01-08T04:51:58.394Z,20.65
2023-01-08T04:54:25.074Z,11.50
2023-01-08T04:56:51.930Z,15.27
2023-01-08T04:59:18.633Z,14.27
2023-01-08T05:01:45.333Z,15.65
2023-01-08T05:04:11.982Z,15.73
2023-01-08T05:06:38.590Z,18.13
2023-01-08T05:09:05.232Z,12.00
2023-01-08T05:11:31.781Z,17.50
2023-01-08T05:13:58.372Z,15.65
2023-01-08T05:16:25.074Z,14.52
2023-01-08T05:18:51.697Z,11.93
2023-01-08T05:21:18.399Z,17.58
2023-01-08T05:23:48.324Z,12.48
2023-01-08T05:26:16.052Z,14.95
2023-01-08T05:28:42.813Z,15.50
2023-01-08T05:31:09.712Z,16.20
2023-01-08T05:33:36.370Z,17.90
2023-01-08T05:36:08.782Z,16.25
2023-01-08T05:38:35.406Z,19.52
2023-01-08T05:41:02.014Z,16.42
2023-01-08T05:43:28.722Z,15.43
2023-01-08T05:45:58.403Z,10.18
2023-01-08T05:48:25.646Z,12.57
2023-01-08T05:50:52.239Z,12.00
2023-01-08T05:53:18.919Z,13.27
2023-01-08T05:55:45.502Z,15.25
2023-01-08T05:58:12.246Z,12.00
2023-01-08T06:00:38.939Z,11.52
2023-01-08T06:03:06.178Z,16.35
2023-01-08T06:05:33.427Z,15.50
2023-01-08T06:08:00.096Z,20.05
2023-01-08T06:10:27.047Z,16.70
2023-01-08T06:12:53.735Z,11.52
2023-01-08T06:15:20.289Z,15.13
2023-01-08T06:17:46.825Z,15.43
2023-01-08T06:20:13.642Z,15.38
2023-01-08T06:22:40.266Z,18.80
2023-01-08T06:25:07.075Z,11.20
2023-01-08T06:27:33.703Z,16.35
2023-01-08T06:30:00.295Z,14.18
2023-01-08T06:32:26.865Z,15.23
2023-01-08T06:34:53.403Z,16.13
2023-01-08T06:37:19.980Z,13.63
2023-01-08T06:39:46.556Z,12.77
2023-01-08T06:42:13.029Z,17.00
2023-01-08T06:44:39.554Z,14.88
2023-01-08T06:47:06.153Z,17.25
2023-01-08T06:49:32.670Z,17.80
2023-01-08T06:51:59.199Z,23.92
2023-01-08T06:54:25.879Z,14.32
2023-01-08T06:56:54.504Z,13.05
2023-01-08T06:59:21.945Z,14.88
2023-01-08T07:01:48.980Z,12.52
2023-01-08T07:04:15.688Z,20.33
2023-01-08T07:06:42.318Z,12.10
2023-01-08T07:09:13.108Z,12.77
2023-01-08T07:11:40.671Z,13.35
2023-01-08T07:14:07.322Z,15.07
2023-01-08T07:16:34.120Z,16.55
2023-01-08T07:19:01.027Z,11.68
2023-01-08T07:21:27.667Z,18.35
2023-01-08T07:23:54.251Z,14.63
2023-01-08T07:26:20.792Z,14.68
2023-01-08T07:28:47.579Z,14.40
2023-01-08T07:31:14.230Z,19.65
2023-01-08T07:33:40.928Z,13.18
2023-01-08T07:36:08.042Z,14.88
2023-01-08T07:38:34.661Z,14.35
2023-01-08T07:41:01.455Z,18.33
2023-01-08T07:43:29.960Z,14.40
2023-01-08T07:45:57.123Z,16.33
2023-01-08T07:48:23.965Z,15.55
2023-01-08T07:50:50.597Z,19.80
2023-01-08T07:53:17.724Z,16.83
2023-01-08T07:55:44.732Z,17.17
2023-01-08T07:58:13.278Z,14.70
2023-01-08T08:00:40.354Z,13.52
2023-01-08T08:03:09.280Z,16.65
2023-01-08T08:05:36.151Z,16.70
2023-01-08T08:08:07.921Z,15.50
2023-01-08T08:10:34.511Z,18.20
2023-01-08T08:13:01.073Z,15.27
2023-01-08T08:15:27.622Z,11.27
2023-01-08T08:17:54.247Z,12.27
2023-01-08T08:20:20.793Z,17.15
2023-01-08T08:22:47.344Z,11.75
2023-01-08T08:25:16.794Z,11.73
2023-01-08T08:27:44.403Z,18.00
2023-01-08T08:30:12.229Z,14.23
2023-01-08T08:32:38.932Z,16.77
2023-01-08T08:35:05.989Z,17.92
2023-01-08T08:37:32.710Z,16.10
2023-01-08T08:39:59.334Z,15.05
2023-01-08T08:42:25.890Z,16.90
2023-01-08T08:44:52.497Z,17.85
2023-01-08T08:47:19.152Z,15.25
2023-01-08T08:49:45.745Z,11.95
2023-01-08T08:52:12.357Z,13.65
2023-01-08T08:54:41.419Z,11.23
2023-01-08T08:57:09.290Z,14.60
2023-01-08T08:59:36.559Z,15.23
2023-01-08T09:02:03.787Z,15.30
2023-01-08T09:04:32.179Z,11.65
2023-01-08T09:06:59.674Z,16.02
2023-01-08T09:09:27.043Z,15.77
2023-01-08T09:11:54.473Z,11.68
2023-01-08T09:14:21.404Z,18.30
2023-01-08T09:16:48.185Z,12.43
2023-01-08T09:19:14.923Z,17.35
2023-01-08T09:21:41.503Z,28.73
2023-01-08T09:24:08.873Z,18.77
2023-01-08T09:26:35.444Z,13.52
2023-01-08T09:29:02.072Z,16.38
2023-01-08T09:31:28.711Z,13.77
2023-01-08T09:33:55.385Z,15.85
2023-01-08T09:36:21.882Z,18.50
2023-01-08T09:38:48.449Z,16.33
2023-01-08T09:41:28.207Z,17.27
2023-01-08T09:43:56.847Z,13.10
2023-01-08T09:46:27.255Z,15.82
2023-01-08T09:48:58.416Z,11.23
2023-01-08T09:51:34.249Z,14.93
2023-01-08T09:54:01.267Z,18.35
2023-01-08T09:56:28.549Z,19.23
2023-01-08T09:58:59.092Z,13.27
2023-01-08T10:01:37.305Z,20.73
2023-01-08T10:04:14.567Z,17.30
2023-01-08T10:06:41.816Z,11.18
2023-01-08T10:09:14.429Z,15.48
2023-01-08T10:11:44.974Z,11.15
2023-01-08T10:14:28.474Z,19.45
2023-01-08T10:17:21.940Z,16.02
2023-01-08T10:19:48.654Z,12.68
2023-01-08T10:22:18.462Z,16.13
2023-01-08T10:24:45.190Z,14.65
2023-01-08T10:27:23.566Z,20.23
2023-01-08T10:29:52.012Z,15.98
2023-01-08T10:32:34.495Z,16.45
2023-01-08T10:35:05.466Z,20.70
2023-01-08T10:37:39.197Z,15.57
2023-01-08T10:40:39.765Z,20.70
2023-01-08T10:43:18.599Z,16.25
2023-01-08T10:45:56.605Z,11.60
2023-01-08T10:48:28.282Z,16.60
2023-01-08T10:51:06.959Z,11.68
2023-01-08T10:53:33.804Z,18.70
2023-01-08T10:56:03.398Z,13.82
2023-01-08T10:58:40.298Z,12.80
2023-01-08T11:01:22.452Z,17.17
2023-01-08T11:03:55.650Z,15.57
2023-01-08T11:06:46.948Z,18.95
2023-01-08T11:09:25.581Z,14.77
2023-01-08T11:11:52.337Z,9.00
2023-01-08T11:14:24.139Z,14.95
2023-01-08T11:16:50.845Z,14.73
2023-01-08T11:19:22.931Z,16.25
2023-01-08T11:21:58.456Z,19.60
2023-01-08T11:24:27.120Z,14.60
2023-01-08T11:27:16.583Z,16.23
2023-01-08T11:30:12.468Z,10.80
2023-01-08T11:33:02.242Z,17.27
2023-01-08T11:35:48.544Z,11.38
2023-01-08T11:41:11.083Z,15.68
2023-01-08T11:44:02.705Z,19.33
2023-01-08T11:46:51.043Z,13.60
2023-01-08T11:50:04.709Z,14.20
2023-01-08T11:52:41.345Z,16.80
2023-01-08T11:55:28.707Z,8.95
2023-01-08T11:58:27.728Z,9.95
2023-01-08T12:01:01.047Z,8.02
2023-01-08T12:03:36.684Z,10.32
2023-01-08T12:06:21.109Z,13.20
2023-01-08T12:09:28.429Z,15.32
2023-01-08T12:12:05.539Z,17.27
2023-01-08T12:15:03.217Z,15.75
2023-01-08T12:17:48.773Z,14.02
2023-01-08T12:20:40.315Z,11.40
2023-01-08T12:23:44.073Z,13.65
2023-01-08T12:26:27.899Z,9.85
2023-01-08T12:29:06.805Z,14.00
2023-01-08T12:32:02.009Z,13.95
2023-01-08T12:34:38.836Z,10.35
2023-01-08T12:37:18.673Z,12.07
2023-01-08T12:39:56.748Z,11.43
2023-01-08T12:42:28.142Z,9.82
2023-01-08T12:44:57.077Z,13.68
2023-01-08T12:47:28.131Z,18.63
2023-01-08T12:50:20.919Z,11.85
2023-01-08T12:53:02.182Z,10.80
2023-01-08T12:55:34.822Z,12.32
2023-01-08T12:58:45.642Z,14.32
2023-01-08T13:03:49.266Z,8.55
2023-01-08T13:06:18.625Z,16.48
2023-01-08T13:08:50.052Z,11.35
2023-01-08T13:11:42.248Z,16.90
2023-01-08T13:14:12.220Z,13.30
2023-01-08T13:16:41.581Z,13.15
2023-01-08T13:19:24.935Z,8.88
2023-01-08T13:21:56.847Z,14.85
2023-01-08T13:24:36.234Z,13.80
2023-01-08T13:27:15.099Z,11.55
2023-01-08T13:29:52.086Z,13.13
2023-01-08T13:32:49.498Z,10.38
2023-01-08T13:35:16.123Z,11.25
2023-01-08T13:37:51.547Z,14.02
2023-01-08T13:40:37.095Z,15.00
2023-01-08T13:43:06.774Z,10.23
2023-01-08T13:45:33.688Z,8.98
2023-01-08T13:48:00.474Z,10.55
2023-01-08T13:50:29.473Z,8.75
2023-01-08T13:53:00.829Z,10.13
2023-01-08T13:55:39.847Z,14.23
2023-01-08T13:58:17.336Z,16.60
2023-01-08T14:00:44.072Z,8.73
2023-01-08T14:03:23.896Z,10.10
2023-01-08T14:05:51.273Z,7.88
2023-01-08T14:08:23.023Z,6.85
2023-01-08T14:10:49.963Z,9.40
2023-01-08T14:13:20.995Z,7.78
2023-01-08T14:15:48.222Z,10.43
2023-01-08T14:18:15.307Z,8.90
2023-01-08T14:20:44.851Z,9.35
2023-01-08T14:23:21.721Z,12.10
2023-01-08T14:25:49.639Z,11.10
2023-01-08T14:28:19.615Z,13.30
2023-01-08T14:30:53.943Z,6.15
2023-01-08T14:33:37.859Z,10.02
2023-01-08T14:36:07.235Z,10.18
2023-01-08T14:38:33.868Z,13.45
2023-01-08T14:41:03.633Z,9.52
2023-01-08T14:43:35.148Z,14.50
2023-01-08T14:46:03.861Z,10.85
2023-01-08T14:48:43.886Z,10.63
2023-01-08T14:51:14.510Z,10.25
2023-01-08T14:53:54.040Z,8.40
2023-01-08T14:56:27.448Z,9.55
2023-01-08T14:58:55.467Z,6.90
2023-01-08T15:03:52.342Z,7.32
2023-01-08T15:06:30.566Z,8.15
2023-01-08T15:08:58.523Z,10.18
2023-01-08T15:11:31.846Z,10.00
2023-01-08T15:13:59.013Z,9.02
2023-01-08T15:16:30.591Z,7.93
2023-01-08T15:19:05.523Z,6.32
2023-01-08T15:21:33.155Z,8.45
2023-01-08T15:24:01.323Z,6.90
2023-01-08T15:26:28.468Z,7.72
2023-01-08T15:28:57.129Z,7.55
2023-01-08T15:31:32.426Z,5.15
2023-01-08T15:34:00.658Z,6.00
2023-01-08T15:36:27.722Z,6.40
2023-01-08T15:38:54.396Z,5.43
2023-01-08T15:41:42.597Z,6.80
2023-01-08T15:44:12.376Z,10.00
2023-01-08T15:46:38.949Z,8.60
2023-01-08T15:49:05.607Z,7.45
2023-01-08T15:51:34.305Z,7.05
2023-01-08T15:54:01.920Z,9.15
2023-01-08T15:56:28.785Z,7.38
2023-01-08T15:58:55.372Z,9.23
2023-01-08T16:01:22.186Z,5.63
2023-01-08T16:03:48.907Z,6.22
2023-01-08T16:06:15.555Z,4.50
2023-01-08T16:08:45.805Z,6.22
2023-01-08T16:11:13.848Z,6.43
2023-01-08T16:16:09.795Z,9.00
2023-01-08T16:18:38.271Z,5.82
2023-01-08T16:21:06.512Z,7.72
2023-01-08T16:23:35.503Z,9.70
2023-01-08T16:26:10.881Z,5.80
2023-01-08T16:28:37.870Z,7.88
2023-01-08T16:31:05.374Z,6.35
2023-01-08T16:33:32.269Z,5.75
2023-01-08T16:36:01.440Z,7.88
2023-01-08T16:38:28.821Z,6.97
2023-01-08T16:40:59.727Z,4.60
2023-01-08T16:43:28.286Z,5.75
2023-01-08T16:45:55.212Z,8.48
2023-01-08T16:48:23.537Z,9.75
2023-01-08T16:50:50.143Z,5.75
2023-01-08T16:53:21.958Z,6.47
2023-01-08T16:55:48.601Z,4.95
2023-01-08T16:58:15.235Z,6.28
2023-01-08T17:00:41.849Z,4.25
2023-01-08T17:03:08.423Z,9.77
2023-01-08T17:05:37.009Z,6.70
2023-01-08T17:08:03.792Z,6.90
2023-01-08T17:10:30.404Z,13.63
2023-01-08T17:12:56.933Z,9.90
2023-01-08T17:15:23.582Z,7.93
2023-01-08T17:17:50.131Z,10.80
2023-01-08T17:20:19.708Z,10.02
2023-01-08T17:22:46.936Z,9.57
2023-01-08T17:25:14.213Z,5.43
2023-01-08T17:27:41.733Z,10.07
2023-01-08T17:30:14.044Z,8.65
2023-01-08T17:32:40.898Z,5.90
2023-01-08T17:35:08.206Z,11.15
2023-01-08T17:37:35.366Z,6.45
2023-01-08T17:40:03.678Z,7.53
2023-01-08T17:42:30.490Z,6.18
2023-01-08T17:45:00.288Z,8.93
2023-01-08T17:47:27.368Z,7.00
2023-01-08T17:49:55.779Z,6.03
2023-01-08T17:52:23.863Z,9.70
2023-01-08T17:54:51.818Z,6.85
2023-01-08T17:59:47.159Z,6.95
2023-01-08T18:02:16.428Z,4.85
2023-01-08T18:04:45.518Z,6.55
2023-01-08T18:07:12.464Z,8.93
2023-01-08T18:09:39.101Z,5.50
2023-01-08T18:12:08.250Z,9.82
2023-01-08T18:14:39.022Z,11.18
2023-01-08T18:17:06.562Z,9.82
2023-01-08T18:19:33.180Z,11.05
2023-01-08T18:22:00.785Z,9.60
2023-01-08T18:24:27.348Z,8.27
2023-01-08T18:26:53.976Z,9.43
2023-01-08T18:29:20.563Z,8.85
2023-01-08T18:31:47.242Z,8.63
2023-01-08T18:34:15.026Z,11.05
2023-01-08T18:36:41.868Z,6.55
2023-01-08T18:39:08.455Z,7.03
2023-01-08T18:41:54.132Z,8.73
2023-01-08T18:44:20.775Z,6.32
2023-01-08T18:46:48.296Z,9.50
2023-01-08T18:49:15.382Z,7.50
2023-01-08T18:51:42.431Z,9.32
2023-01-08T18:54:11.036Z,10.05
2023-01-08T18:56:37.620Z,9.35
2023-01-08T18:59:05.935Z,8.43
2023-01-08T19:01:33.735Z,9.65
2023-01-08T19:04:00.384Z,9.82
2023-01-08T19:06:27.174Z,5.63
2023-01-08T19:08:55.268Z,11.15
2023-01-08T19:11:23.555Z,7.60
2023-01-08T19:13:54.580Z,9.55
2023-01-08T19:16:22.550Z,7.88
2023-01-08T19:21:19.078Z,7.72
2023-01-08T19:23:47.195Z,6.97
2023-01-08T19:28:42.422Z,5.50
2023-01-08T19:31:12.161Z,7.45
2023-01-08T19:33:39.217Z,6.88
2023-01-08T19:36:12.517Z,7.63
2023-01-08T19:38:40.153Z,8.68
2023-01-08T19:41:27.816Z,7.00
2023-01-08T19:43:55.182Z,11.45
2023-01-08T19:46:22.209Z,10.52
2023-01-08T19:48:48.848Z,7.15
2023-01-08T19:51:15.451Z,6.13
2023-01-08T19:53:42.045Z,8.32
2023-01-08T19:56:11.393Z,5.63
2023-01-08T19:58:38.434Z,6.32
2023-01-08T20:01:16.978Z,5.88
2023-01-08T20:03:44.222Z,8.02
2023-01-08T20:06:15.804Z,5.53
2023-01-08T20:08:43.881Z,7.78
2023-01-08T20:11:13.429Z,6.30
2023-01-08T20:13:40.968Z,6.75
2023-01-08T20:16:11.038Z,8.50
2023-01-08T20:18:38.338Z,7.53
2023-01-08T20:21:10.781Z,9.55
2023-01-08T20:23:38.287Z,11.23
2023-01-08T20:26:14.569Z,7.22
2023-01-08T20:28:42.376Z,7.32
2023-01-08T20:31:15.399Z,6.60
2023-01-08T20:33:43.129Z,8.13
2023-01-08T20:36:10.794Z,8.95
2023-01-08T20:38:37.794Z,9.57
2023-01-08T20:41:06.967Z,7.97
2023-01-08T20:43:34.537Z,7.20
2023-01-08T20:46:01.677Z,8.70
2023-01-08T20:48:32.000Z,8.88
2023-01-08T20:51:03.525Z,8.70
2023-01-08T20:53:30.839Z,8.75
2023-01-08T20:56:02.010Z,10.57
2023-01-08T20:58:28.656Z,9.38
2023-01-08T21:00:55.473Z,8.07
2023-01-08T21:03:22.179Z,8.38
2023-01-08T21:05:48.784Z,10.57
2023-01-08T21:08:15.385Z,8.07
2023-01-08T21:10:42.160Z,11.85
2023-01-08T21:13:09.796Z,7.72
2023-01-08T21:15:37.545Z,7.43
2023-01-08T21:18:04.499Z,6.82
2023-01-08T21:20:31.185Z,9.45
2023-01-08T21:22:58.180Z,10.73
2023-01-08T21:25:24.954Z,9.25
2023-01-08T21:27:51.702Z,7.75
2023-01-08T21:30:18.402Z,7.25
2023-01-08T21:32:45.220Z,9.18
2023-01-08T21:35:11.823Z,7.68
2023-01-08T21:37:38.631Z,6.85
2023-01-08T21:40:05.903Z,8.73
2023-01-08T21:42:51.254Z,9.90
2023-01-08T21:45:27.819Z,8.77
2023-01-08T21:47:56.772Z,12.88
2023-01-08T21:50:24.691Z,7.55
2023-01-08T21:53:10.041Z,9.00
2023-01-08T21:55:36.774Z,6.93
2023-01-08T21:58:03.385Z,11.63
2023-01-08T22:00:31.277Z,7.75
2023-01-08T22:02:58.228Z,9.25
2023-01-08T22:05:26.599Z,7.35
2023-01-08T22:07:53.326Z,11.15
2023-01-08T22:10:19.987Z,11.27
2023-01-08T22:12:46.683Z,9.70
2023-01-08T22:15:13.373Z,8.00
2023-01-08T22:17:39.916Z,7.95
2023-01-08T22:20:09.210Z,7.35
2023-01-08T22:22:35.875Z,7.13
2023-01-08T22:25:02.512Z,8.13
2023-01-08T22:27:29.257Z,9.10
2023-01-08T22:29:56.052Z,9.13
2023-01-08T22:32:22.799Z,7.85
2023-01-08T22:34:50.448Z,12.13
2023-01-08T22:37:21.533Z,6.90
2023-01-08T22:39:49.133Z,10.27
2023-01-08T22:42:16.606Z,7.60
2023-01-08T22:44:43.346Z,16.05
2023-01-08T22:47:10.074Z,10.13
2023-01-08T22:49:37.809Z,7.22
2023-01-08T22:52:04.884Z,10.85
2023-01-08T22:54:31.453Z,10.57
2023-01-08T22:56:57.993Z,9.63
2023-01-08T22:59:24.573Z,6.88
2023-01-08T23:01:51.247Z,6.70
2023-01-08T23:04:17.940Z,5.72
2023-01-08T23:06:44.637Z,8.40
2023-01-08T23:09:11.329Z,8.25
2023-01-08T23:11:37.960Z,8.73
2023-01-08T23:14:04.639Z,5.43
2023-01-08T23:16:31.478Z,6.80
2023-01-08T23:18:58.253Z,11.80
2023-01-08T23:21:25.959Z,10.88
2023-01-08T23:23:52.880Z,10.00
2023-01-08T23:26:22.993Z,10.55
2023-01-08T23:28:51.494Z,9.30
2023-01-08T23:31:22.725Z,8.75
2023-01-08T23:33:49.648Z,8.50
2023-01-08T23:36:18.965Z,5.00
2023-01-08T23:38:47.103Z,5.82
2023-01-08T23:43:40.875Z,7.93
2023-01-08T23:46:08.013Z,6.97
2023-01-08T23:48:35.196Z,5.00
2023-01-08T23:51:01.938Z,7.18
2023-01-08T23:53:29.027Z,6.55
2023-01-08T23:55:55.834Z,10.38
2023-01-08T23:58:22.800Z,7.05
